sensor_id;sensor_type;location;lat;lon;timestamp;P1;durP1;ratioP1;P2;durP2;ratioP2
26113;SDS011;13966;48.828;9.064;2022-07-29T00:00:03;4.78;;;4.00;;
26113;SDS011;13966;48.828;9.064;2022-07-29T00:02:29;4.13;;;3.55;;
26113;SDS011;13966;48.828;9.064;2022-07-29T00:04:56;5.28;;;4.10;;
26113;SDS011;13966;48.828;9.064;2022-07-29T00:07:23;8.18;;;4.13;;
26113;SDS011;13966;48.828;9.064;2022-07-29T00:09:49;6.22;;;4.25;;
26113;SDS011;13966;48.828;9.064;2022-07-29T00:12:15;6.00;;;4.65;;
26113;SDS011;13966;48.828;9.064;2022-07-29T00:14:41;5.88;;;4.00;;
26113;SDS011;13966;48.828;9.064;2022-07-29T00:17:07;8.23;;;4.40;;
26113;SDS011;13966;48.828;9.064;2022-07-29T00:19:33;4.80;;;4.20;;
26113;SDS011;13966;48.828;9.064;2022-07-29T00:21:59;7.30;;;4.75;;
26113;SDS011;13966;48.828;9.064;2022-07-29T00:24:26;6.63;;;4.10;;
26113;SDS011;13966;48.828;9.064;2022-07-29T00:26:52;5.43;;;4.20;;
26113;SDS011;13966;48.828;9.064;2022-07-29T00:29:18;5.68;;;4.50;;
26113;SDS011;13966;48.828;9.064;2022-07-29T00:31:44;6.75;;;4.35;;
26113;SDS011;13966;48.828;9.064;2022-07-29T00:34:10;6.00;;;4.25;;
26113;SDS011;13966;48.828;9.064;2022-07-29T00:36:55;5.50;;;4.22;;
26113;SDS011;13966;48.828;9.064;2022-07-29T00:39:22;5.28;;;4.50;;
26113;SDS011;13966;48.828;9.064;2022-07-29T00:41:48;5.05;;;3.97;;
26113;SDS011;13966;48.828;9.064;2022-07-29T00:44:14;5.35;;;4.22;;
26113;SDS011;13966;48.828;9.064;2022-07-29T00:46:40;5.30;;;4.55;;
26113;SDS011;13966;48.828;9.064;2022-07-29T00:49:06;5.03;;;4.07;;
26113;SDS011;13966;48.828;9.064;2022-07-29T00:51:34;4.93;;;4.35;;
26113;SDS011;13966;48.828;9.064;2022-07-29T00:54:01;8.45;;;4.57;;
26113;SDS011;13966;48.828;9.064;2022-07-29T00:56:27;5.40;;;4.20;;
26113;SDS011;13966;48.828;9.064;2022-07-29T00:58:55;7.22;;;4.13;;
26113;SDS011;13966;48.828;9.064;2022-07-29T01:01:22;7.20;;;4.43;;
26113;SDS011;13966;48.828;9.064;2022-07-29T01:03:48;5.43;;;4.22;;
26113;SDS011;13966;48.828;9.064;2022-07-29T01:06:14;5.95;;;4.43;;
26113;SDS011;13966;48.828;9.064;2022-07-29T01:08:41;6.57;;;3.90;;
26113;SDS011;13966;48.828;9.064;2022-07-29T01:11:07;5.53;;;4.00;;
26113;SDS011;13966;48.828;9.064;2022-07-29T01:13:33;6.03;;;3.80;;
26113;SDS011;13966;48.828;9.064;2022-07-29T01:16:03;5.05;;;3.55;;
26113;SDS011;13966;48.828;9.064;2022-07-29T01:18:37;6.05;;;3.50;;
26113;SDS011;13966;48.828;9.064;2022-07-29T01:23:39;5.35;;;3.53;;
26113;SDS011;13966;48.828;9.064;2022-07-29T01:26:22;4.43;;;3.17;;
26113;SDS011;13966;48.828;9.064;2022-07-29T01:31:40;8.13;;;3.88;;
26113;SDS011;13966;48.828;9.064;2022-07-29T01:34:09;4.00;;;3.50;;
26113;SDS011;13966;48.828;9.064;2022-07-29T01:36:47;4.70;;;3.97;;
26113;SDS011;13966;48.828;9.064;2022-07-29T01:39:17;4.45;;;3.55;;
26113;SDS011;13966;48.828;9.064;2022-07-29T01:42:06;5.07;;;3.50;;
26113;SDS011;13966;48.828;9.064;2022-07-29T01:44:31;5.30;;;3.60;;
26113;SDS011;13966;48.828;9.064;2022-07-29T01:46:59;5.40;;;3.72;;
26113;SDS011;13966;48.828;9.064;2022-07-29T01:49:29;3.95;;;3.15;;
26113;SDS011;13966;48.828;9.064;2022-07-29T01:52:00;5.25;;;3.67;;
26113;SDS011;13966;48.828;9.064;2022-07-29T01:54:30;5.78;;;3.22;;
26113;SDS011;13966;48.828;9.064;2022-07-29T01:56:58;4.55;;;3.45;;
26113;SDS011;13966;48.828;9.064;2022-07-29T01:59:25;4.78;;;3.60;;
26113;SDS011;13966;48.828;9.064;2022-07-29T02:01:53;4.70;;;3.38;;
26113;SDS011;13966;48.828;9.064;2022-07-29T02:04:19;3.55;;;3.10;;
26113;SDS011;13966;48.828;9.064;2022-07-29T02:06:46;3.83;;;3.38;;
26113;SDS011;13966;48.828;9.064;2022-07-29T02:09:13;4.35;;;3.72;;
26113;SDS011;13966;48.828;9.064;2022-07-29T02:11:40;4.50;;;3.40;;
26113;SDS011;13966;48.828;9.064;2022-07-29T02:14:10;4.50;;;2.90;;
26113;SDS011;13966;48.828;9.064;2022-07-29T02:16:38;3.55;;;2.92;;
26113;SDS011;13966;48.828;9.064;2022-07-29T02:19:05;4.28;;;3.25;;
26113;SDS011;13966;48.828;9.064;2022-07-29T02:21:33;4.57;;;3.45;;
26113;SDS011;13966;48.828;9.064;2022-07-29T02:24:01;5.05;;;3.38;;
26113;SDS011;13966;48.828;9.064;2022-07-29T02:26:27;3.72;;;2.92;;
26113;SDS011;13966;48.828;9.064;2022-07-29T02:28:55;5.78;;;3.00;;
26113;SDS011;13966;48.828;9.064;2022-07-29T02:31:22;4.22;;;3.08;;
26113;SDS011;13966;48.828;9.064;2022-07-29T02:33:49;4.57;;;3.28;;
26113;SDS011;13966;48.828;9.064;2022-07-29T02:36:16;4.68;;;3.10;;
26113;SDS011;13966;48.828;9.064;2022-07-29T02:38:43;4.72;;;2.95;;
26113;SDS011;13966;48.828;9.064;2022-07-29T02:41:16;4.40;;;2.88;;
26113;SDS011;13966;48.828;9.064;2022-07-29T02:43:43;3.65;;;3.03;;
26113;SDS011;13966;48.828;9.064;2022-07-29T02:46:14;3.50;;;3.20;;
26113;SDS011;13966;48.828;9.064;2022-07-29T02:48:44;3.35;;;2.80;;
26113;SDS011;13966;48.828;9.064;2022-07-29T02:51:23;4.35;;;3.03;;
26113;SDS011;13966;48.828;9.064;2022-07-29T02:53:51;3.22;;;2.92;;
26113;SDS011;13966;48.828;9.064;2022-07-29T02:56:19;4.10;;;2.97;;
26113;SDS011;13966;48.828;9.064;2022-07-29T02:58:56;6.25;;;3.22;;
26113;SDS011;13966;48.828;9.064;2022-07-29T03:01:23;6.30;;;3.13;;
26113;SDS011;13966;48.828;9.064;2022-07-29T03:03:50;3.10;;;2.80;;
26113;SDS011;13966;48.828;9.064;2022-07-29T03:06:17;5.38;;;2.92;;
26113;SDS011;13966;48.828;9.064;2022-07-29T03:08:44;3.97;;;3.03;;
26113;SDS011;13966;48.828;9.064;2022-07-29T03:11:10;2.97;;;2.78;;
26113;SDS011;13966;48.828;9.064;2022-07-29T03:13:37;3.78;;;2.92;;
26113;SDS011;13966;48.828;9.064;2022-07-29T03:16:03;4.18;;;3.10;;
26113;SDS011;13966;48.828;9.064;2022-07-29T03:18:30;6.57;;;2.95;;
26113;SDS011;13966;48.828;9.064;2022-07-29T03:20:56;4.43;;;3.08;;
26113;SDS011;13966;48.828;9.064;2022-07-29T03:23:22;3.22;;;2.78;;
26113;SDS011;13966;48.828;9.064;2022-07-29T03:25:50;3.60;;;3.00;;
26113;SDS011;13966;48.828;9.064;2022-07-29T03:28:17;3.00;;;2.72;;
26113;SDS011;13966;48.828;9.064;2022-07-29T03:30:43;3.35;;;2.80;;
26113;SDS011;13966;48.828;9.064;2022-07-29T03:33:09;3.35;;;3.00;;
26113;SDS011;13966;48.828;9.064;2022-07-29T03:35:35;3.45;;;2.75;;
26113;SDS011;13966;48.828;9.064;2022-07-29T03:38:01;4.78;;;3.20;;
26113;SDS011;13966;48.828;9.064;2022-07-29T03:40:38;4.78;;;3.20;;
26113;SDS011;13966;48.828;9.064;2022-07-29T03:43:06;6.20;;;3.20;;
26113;SDS011;13966;48.828;9.064;2022-07-29T03:45:32;3.70;;;2.85;;
26113;SDS011;13966;48.828;9.064;2022-07-29T03:48:01;2.75;;;2.40;;
26113;SDS011;13966;48.828;9.064;2022-07-29T03:50:28;4.03;;;3.00;;
26113;SDS011;13966;48.828;9.064;2022-07-29T03:52:56;4.78;;;2.78;;
26113;SDS011;13966;48.828;9.064;2022-07-29T03:55:23;7.32;;;3.40;;
26113;SDS011;13966;48.828;9.064;2022-07-29T03:57:49;5.35;;;2.90;;
26113;SDS011;13966;48.828;9.064;2022-07-29T04:00:15;3.63;;;2.90;;
26113;SDS011;13966;48.828;9.064;2022-07-29T04:02:41;7.10;;;2.90;;
26113;SDS011;13966;48.828;9.064;2022-07-29T04:05:13;3.38;;;2.97;;
26113;SDS011;13966;48.828;9.064;2022-07-29T04:07:48;4.28;;;3.05;;
26113;SDS011;13966;48.828;9.064;2022-07-29T04:10:15;4.05;;;3.28;;
26113;SDS011;13966;48.828;9.064;2022-07-29T04:12:41;3.00;;;2.80;;
26113;SDS011;13966;48.828;9.064;2022-07-29T04:15:08;4.22;;;3.15;;
26113;SDS011;13966;48.828;9.064;2022-07-29T04:17:34;3.88;;;3.35;;
26113;SDS011;13966;48.828;9.064;2022-07-29T04:20:00;3.70;;;3.00;;
26113;SDS011;13966;48.828;9.064;2022-07-29T04:22:26;2.88;;;2.50;;
26113;SDS011;13966;48.828;9.064;2022-07-29T04:24:52;4.55;;;3.08;;
26113;SDS011;13966;48.828;9.064;2022-07-29T04:27:18;5.07;;;3.15;;
26113;SDS011;13966;48.828;9.064;2022-07-29T04:29:44;4.50;;;3.10;;
26113;SDS011;13966;48.828;9.064;2022-07-29T04:32:10;7.28;;;2.92;;
26113;SDS011;13966;48.828;9.064;2022-07-29T04:34:36;7.22;;;2.90;;
26113;SDS011;13966;48.828;9.064;2022-07-29T04:37:02;15.75;;;3.03;;
26113;SDS011;13966;48.828;9.064;2022-07-29T04:39:28;8.20;;;3.08;;
26113;SDS011;13966;48.828;9.064;2022-07-29T04:41:54;3.63;;;2.70;;
26113;SDS011;13966;48.828;9.064;2022-07-29T04:44:20;8.10;;;2.58;;
26113;SDS011;13966;48.828;9.064;2022-07-29T04:46:47;3.58;;;2.47;;
26113;SDS011;13966;48.828;9.064;2022-07-29T04:49:13;4.35;;;2.45;;
26113;SDS011;13966;48.828;9.064;2022-07-29T04:51:39;2.67;;;2.28;;
26113;SDS011;13966;48.828;9.064;2022-07-29T04:54:05;4.57;;;2.60;;
26113;SDS011;13966;48.828;9.064;2022-07-29T04:56:31;6.47;;;2.55;;
26113;SDS011;13966;48.828;9.064;2022-07-29T04:58:57;3.67;;;2.15;;
26113;SDS011;13966;48.828;9.064;2022-07-29T05:01:23;5.00;;;2.40;;
26113;SDS011;13966;48.828;9.064;2022-07-29T05:03:49;9.07;;;3.15;;
26113;SDS011;13966;48.828;9.064;2022-07-29T05:06:15;18.05;;;3.22;;
26113;SDS011;13966;48.828;9.064;2022-07-29T05:08:41;7.93;;;2.47;;
26113;SDS011;13966;48.828;9.064;2022-07-29T05:11:07;3.85;;;2.08;;
26113;SDS011;13966;48.828;9.064;2022-07-29T05:13:33;5.03;;;2.33;;
26113;SDS011;13966;48.828;9.064;2022-07-29T05:15:59;5.93;;;2.63;;
26113;SDS011;13966;48.828;9.064;2022-07-29T05:18:25;6.35;;;2.92;;
26113;SDS011;13966;48.828;9.064;2022-07-29T05:20:51;5.95;;;2.40;;
26113;SDS011;13966;48.828;9.064;2022-07-29T05:23:17;3.25;;;2.60;;
26113;SDS011;13966;48.828;9.064;2022-07-29T05:25:43;5.15;;;2.60;;
26113;SDS011;13966;48.828;9.064;2022-07-29T05:28:11;4.38;;;2.63;;
26113;SDS011;13966;48.828;9.064;2022-07-29T05:30:37;4.10;;;2.58;;
26113;SDS011;13966;48.828;9.064;2022-07-29T05:33:03;4.93;;;2.67;;
26113;SDS011;13966;48.828;9.064;2022-07-29T05:35:29;3.10;;;2.60;;
26113;SDS011;13966;48.828;9.064;2022-07-29T05:37:55;3.70;;;2.60;;
26113;SDS011;13966;48.828;9.064;2022-07-29T05:40:21;2.78;;;2.25;;
26113;SDS011;13966;48.828;9.064;2022-07-29T05:42:47;3.78;;;2.50;;
26113;SDS011;13966;48.828;9.064;2022-07-29T05:45:13;3.50;;;2.60;;
26113;SDS011;13966;48.828;9.064;2022-07-29T05:47:39;4.00;;;2.90;;
26113;SDS011;13966;48.828;9.064;2022-07-29T05:50:06;4.63;;;2.47;;
26113;SDS011;13966;48.828;9.064;2022-07-29T05:52:32;2.78;;;2.58;;
26113;SDS011;13966;48.828;9.064;2022-07-29T05:54:58;3.15;;;2.42;;
26113;SDS011;13966;48.828;9.064;2022-07-29T05:57:27;3.78;;;2.50;;
26113;SDS011;13966;48.828;9.064;2022-07-29T05:59:53;19.67;;;3.97;;
26113;SDS011;13966;48.828;9.064;2022-07-29T06:02:19;4.07;;;2.63;;
26113;SDS011;13966;48.828;9.064;2022-07-29T06:04:45;3.83;;;2.80;;
26113;SDS011;13966;48.828;9.064;2022-07-29T06:07:12;4.85;;;3.20;;
26113;SDS011;13966;48.828;9.064;2022-07-29T06:09:38;6.90;;;2.67;;
26113;SDS011;13966;48.828;9.064;2022-07-29T06:12:04;3.25;;;2.80;;
26113;SDS011;13966;48.828;9.064;2022-07-29T06:14:30;4.85;;;2.97;;
26113;SDS011;13966;48.828;9.064;2022-07-29T06:16:57;3.53;;;2.90;;
26113;SDS011;13966;48.828;9.064;2022-07-29T06:19:23;9.57;;;3.47;;
26113;SDS011;13966;48.828;9.064;2022-07-29T06:21:49;3.10;;;2.80;;
26113;SDS011;13966;48.828;9.064;2022-07-29T06:24:15;4.90;;;3.10;;
26113;SDS011;13966;48.828;9.064;2022-07-29T06:26:42;3.92;;;2.92;;
26113;SDS011;13966;48.828;9.064;2022-07-29T06:29:08;3.45;;;2.78;;
26113;SDS011;13966;48.828;9.064;2022-07-29T06:31:35;4.78;;;3.20;;
26113;SDS011;13966;48.828;9.064;2022-07-29T06:34:01;5.80;;;3.20;;
26113;SDS011;13966;48.828;9.064;2022-07-29T06:36:28;5.78;;;3.10;;
26113;SDS011;13966;48.828;9.064;2022-07-29T06:38:54;3.42;;;2.50;;
26113;SDS011;13966;48.828;9.064;2022-07-29T06:41:20;5.00;;;2.58;;
26113;SDS011;13966;48.828;9.064;2022-07-29T06:43:47;7.47;;;2.72;;
26113;SDS011;13966;48.828;9.064;2022-07-29T06:46:14;6.20;;;2.60;;
26113;SDS011;13966;48.828;9.064;2022-07-29T06:48:42;10.07;;;3.13;;
26113;SDS011;13966;48.828;9.064;2022-07-29T06:51:09;7.75;;;2.95;;
26113;SDS011;13966;48.828;9.064;2022-07-29T06:53:36;5.45;;;3.33;;
26113;SDS011;13966;48.828;9.064;2022-07-29T06:56:02;5.72;;;3.10;;
26113;SDS011;13966;48.828;9.064;2022-07-29T06:58:29;3.00;;;2.70;;
26113;SDS011;13966;48.828;9.064;2022-07-29T07:00:57;3.53;;;3.03;;
26113;SDS011;13966;48.828;9.064;2022-07-29T07:03:24;5.47;;;3.13;;
26113;SDS011;13966;48.828;9.064;2022-07-29T07:05:51;2.72;;;2.53;;
26113;SDS011;13966;48.828;9.064;2022-07-29T07:08:17;4.40;;;2.95;;
26113;SDS011;13966;48.828;9.064;2022-07-29T07:10:44;4.85;;;2.90;;
26113;SDS011;13966;48.828;9.064;2022-07-29T07:13:10;4.00;;;2.92;;
26113;SDS011;13966;48.828;9.064;2022-07-29T07:15:36;4.55;;;3.47;;
26113;SDS011;13966;48.828;9.064;2022-07-29T07:18:03;5.78;;;3.13;;
26113;SDS011;13966;48.828;9.064;2022-07-29T07:20:30;5.30;;;3.05;;
26113;SDS011;13966;48.828;9.064;2022-07-29T07:22:56;4.57;;;3.40;;
26113;SDS011;13966;48.828;9.064;2022-07-29T07:25:22;6.05;;;3.20;;
26113;SDS011;13966;48.828;9.064;2022-07-29T07:27:48;8.32;;;3.10;;
26113;SDS011;13966;48.828;9.064;2022-07-29T07:30:14;5.82;;;3.10;;
26113;SDS011;13966;48.828;9.064;2022-07-29T07:32:40;4.90;;;3.25;;
26113;SDS011;13966;48.828;9.064;2022-07-29T07:35:07;6.85;;;3.10;;
26113;SDS011;13966;48.828;9.064;2022-07-29T07:37:33;4.65;;;3.20;;
26113;SDS011;13966;48.828;9.064;2022-07-29T07:39:59;6.05;;;3.00;;
26113;SDS011;13966;48.828;9.064;2022-07-29T07:42:26;6.25;;;3.70;;
26113;SDS011;13966;48.828;9.064;2022-07-29T07:44:52;4.88;;;3.50;;
26113;SDS011;13966;48.828;9.064;2022-07-29T07:47:18;7.00;;;3.15;;
26113;SDS011;13966;48.828;9.064;2022-07-29T07:49:49;7.43;;;3.60;;
26113;SDS011;13966;48.828;9.064;2022-07-29T07:52:15;5.85;;;3.35;;
26113;SDS011;13966;48.828;9.064;2022-07-29T07:54:42;8.20;;;3.13;;
26113;SDS011;13966;48.828;9.064;2022-07-29T07:57:09;7.75;;;3.55;;
26113;SDS011;13966;48.828;9.064;2022-07-29T07:59:35;6.43;;;3.60;;
26113;SDS011;13966;48.828;9.064;2022-07-29T08:02:01;4.45;;;3.25;;
26113;SDS011;13966;48.828;9.064;2022-07-29T08:04:27;5.80;;;2.95;;
26113;SDS011;13966;48.828;9.064;2022-07-29T08:06:53;5.40;;;3.20;;
26113;SDS011;13966;48.828;9.064;2022-07-29T08:09:22;4.20;;;3.10;;
26113;SDS011;13966;48.828;9.064;2022-07-29T08:11:49;5.25;;;3.15;;
26113;SDS011;13966;48.828;9.064;2022-07-29T08:14:15;3.13;;;2.78;;
26113;SDS011;13966;48.828;9.064;2022-07-29T08:16:41;3.35;;;2.83;;
26113;SDS011;13966;48.828;9.064;2022-07-29T08:19:08;7.47;;;3.47;;
26113;SDS011;13966;48.828;9.064;2022-07-29T08:21:34;5.82;;;3.00;;
26113;SDS011;13966;48.828;9.064;2022-07-29T08:24:00;3.85;;;2.80;;
26113;SDS011;13966;48.828;9.064;2022-07-29T08:26:45;6.35;;;3.45;;
26113;SDS011;13966;48.828;9.064;2022-07-29T08:29:11;5.15;;;2.90;;
26113;SDS011;13966;48.828;9.064;2022-07-29T08:31:38;6.13;;;2.95;;
26113;SDS011;13966;48.828;9.064;2022-07-29T08:34:04;7.07;;;3.30;;
26113;SDS011;13966;48.828;9.064;2022-07-29T08:36:31;4.68;;;2.85;;
26113;SDS011;13966;48.828;9.064;2022-07-29T08:38:57;6.88;;;3.50;;
26113;SDS011;13966;48.828;9.064;2022-07-29T08:41:23;4.65;;;2.75;;
26113;SDS011;13966;48.828;9.064;2022-07-29T08:43:50;6.28;;;3.58;;
26113;SDS011;13966;48.828;9.064;2022-07-29T08:46:16;4.55;;;2.95;;
26113;SDS011;13966;48.828;9.064;2022-07-29T08:48:42;6.78;;;3.33;;
26113;SDS011;13966;48.828;9.064;2022-07-29T08:51:12;4.13;;;2.90;;
26113;SDS011;13966;48.828;9.064;2022-07-29T08:53:39;6.43;;;3.35;;
26113;SDS011;13966;48.828;9.064;2022-07-29T08:56:06;5.57;;;2.70;;
26113;SDS011;13966;48.828;9.064;2022-07-29T08:58:32;8.55;;;3.58;;
26113;SDS011;13966;48.828;9.064;2022-07-29T09:01:00;8.40;;;3.50;;
26113;SDS011;13966;48.828;9.064;2022-07-29T09:03:31;6.00;;;3.08;;
26113;SDS011;13966;48.828;9.064;2022-07-29T09:05:58;8.55;;;3.67;;
26113;SDS011;13966;48.828;9.064;2022-07-29T09:08:24;4.78;;;3.22;;
26113;SDS011;13966;48.828;9.064;2022-07-29T09:10:50;4.78;;;3.00;;
26113;SDS011;13966;48.828;9.064;2022-07-29T09:13:16;8.20;;;3.00;;
26113;SDS011;13966;48.828;9.064;2022-07-29T09:15:43;5.35;;;3.70;;
26113;SDS011;13966;48.828;9.064;2022-07-29T09:18:09;4.28;;;3.30;;
26113;SDS011;13966;48.828;9.064;2022-07-29T09:20:35;8.50;;;3.60;;
26113;SDS011;13966;48.828;9.064;2022-07-29T09:23:20;5.38;;;3.42;;
26113;SDS011;13966;48.828;9.064;2022-07-29T09:25:46;5.47;;;3.90;;
26113;SDS011;13966;48.828;9.064;2022-07-29T09:28:13;6.57;;;3.95;;
26113;SDS011;13966;48.828;9.064;2022-07-29T09:30:52;6.60;;;3.38;;
26113;SDS011;13966;48.828;9.064;2022-07-29T09:33:19;5.68;;;3.42;;
26113;SDS011;13966;48.828;9.064;2022-07-29T09:35:45;9.15;;;3.33;;
26113;SDS011;13966;48.828;9.064;2022-07-29T09:38:14;6.28;;;3.40;;
26113;SDS011;13966;48.828;9.064;2022-07-29T09:40:40;6.95;;;2.95;;
26113;SDS011;13966;48.828;9.064;2022-07-29T09:43:14;4.78;;;3.38;;
26113;SDS011;13966;48.828;9.064;2022-07-29T09:45:40;8.27;;;3.50;;
26113;SDS011;13966;48.828;9.064;2022-07-29T09:48:13;3.75;;;3.08;;
26113;SDS011;13966;48.828;9.064;2022-07-29T09:50:39;6.22;;;3.30;;
26113;SDS011;13966;48.828;9.064;2022-07-29T09:53:06;4.55;;;2.65;;
26113;SDS011;13966;48.828;9.064;2022-07-29T09:55:45;7.13;;;2.85;;
26113;SDS011;13966;48.828;9.064;2022-07-29T09:58:18;6.68;;;3.05;;
26113;SDS011;13966;48.828;9.064;2022-07-29T10:00:45;8.00;;;3.30;;
26113;SDS011;13966;48.828;9.064;2022-07-29T10:03:12;6.07;;;2.83;;
26113;SDS011;13966;48.828;9.064;2022-07-29T10:05:38;4.75;;;2.90;;
26113;SDS011;13966;48.828;9.064;2022-07-29T10:08:05;5.47;;;2.90;;
26113;SDS011;13966;48.828;9.064;2022-07-29T10:10:33;7.40;;;3.13;;
26113;SDS011;13966;48.828;9.064;2022-07-29T10:13:04;4.88;;;3.10;;
26113;SDS011;13966;48.828;9.064;2022-07-29T10:15:31;6.53;;;2.80;;
26113;SDS011;13966;48.828;9.064;2022-07-29T10:17:58;6.95;;;2.95;;
26113;SDS011;13966;48.828;9.064;2022-07-29T10:20:24;4.85;;;3.17;;
26113;SDS011;13966;48.828;9.064;2022-07-29T10:22:51;4.13;;;2.95;;
26113;SDS011;13966;48.828;9.064;2022-07-29T10:25:18;5.28;;;2.70;;
26113;SDS011;13966;48.828;9.064;2022-07-29T10:27:44;7.28;;;2.70;;
26113;SDS011;13966;48.828;9.064;2022-07-29T10:30:11;7.15;;;3.15;;
26113;SDS011;13966;48.828;9.064;2022-07-29T10:32:40;7.47;;;2.90;;
26113;SDS011;13966;48.828;9.064;2022-07-29T10:35:14;7.15;;;2.90;;
26113;SDS011;13966;48.828;9.064;2022-07-29T10:40:27;4.65;;;2.53;;
26113;SDS011;13966;48.828;9.064;2022-07-29T10:43:27;5.47;;;2.58;;
26113;SDS011;13966;48.828;9.064;2022-07-29T10:45:58;7.75;;;2.78;;
26113;SDS011;13966;48.828;9.064;2022-07-29T10:50:57;6.00;;;2.80;;
26113;SDS011;13966;48.828;9.064;2022-07-29T10:53:24;5.95;;;3.15;;
26113;SDS011;13966;48.828;9.064;2022-07-29T10:55:51;5.75;;;3.17;;
26113;SDS011;13966;48.828;9.064;2022-07-29T10:58:18;6.57;;;3.28;;
26113;SDS011;13966;48.828;9.064;2022-07-29T11:00:49;13.13;;;3.85;;
26113;SDS011;13966;48.828;9.064;2022-07-29T11:05:59;15.70;;;3.95;;
26113;SDS011;13966;48.828;9.064;2022-07-29T11:08:25;12.70;;;4.25;;
26113;SDS011;13966;48.828;9.064;2022-07-29T11:11:37;8.40;;;3.85;;
26113;SDS011;13966;48.828;9.064;2022-07-29T11:16:15;8.65;;;4.75;;
26113;SDS011;13966;48.828;9.064;2022-07-29T11:21:35;7.32;;;4.38;;
26113;SDS011;13966;48.828;9.064;2022-07-29T11:24:11;4.57;;;4.10;;
26113;SDS011;13966;48.828;9.064;2022-07-29T11:26:37;12.15;;;4.70;;
26113;SDS011;13966;48.828;9.064;2022-07-29T11:29:25;7.78;;;4.63;;
26113;SDS011;13966;48.828;9.064;2022-07-29T11:31:51;6.88;;;4.55;;
26113;SDS011;13966;48.828;9.064;2022-07-29T11:34:30;7.03;;;4.13;;
26113;SDS011;13966;48.828;9.064;2022-07-29T11:39:29;4.97;;;3.65;;
26113;SDS011;13966;48.828;9.064;2022-07-29T11:42:36;6.55;;;3.50;;
26113;SDS011;13966;48.828;9.064;2022-07-29T11:47:22;3.47;;;3.00;;
26113;SDS011;13966;48.828;9.064;2022-07-29T11:49:49;5.20;;;2.92;;
26113;SDS011;13966;48.828;9.064;2022-07-29T11:52:16;5.97;;;2.63;;
26113;SDS011;13966;48.828;9.064;2022-07-29T11:54:42;4.30;;;2.45;;
26113;SDS011;13966;48.828;9.064;2022-07-29T11:57:08;5.60;;;2.45;;
26113;SDS011;13966;48.828;9.064;2022-07-29T11:59:44;5.70;;;2.92;;
26113;SDS011;13966;48.828;9.064;2022-07-29T12:02:10;7.65;;;2.85;;
26113;SDS011;13966;48.828;9.064;2022-07-29T12:04:52;4.05;;;2.72;;
26113;SDS011;13966;48.828;9.064;2022-07-29T12:07:29;3.17;;;2.42;;
26113;SDS011;13966;48.828;9.064;2022-07-29T12:09:55;3.05;;;2.50;;
26113;SDS011;13966;48.828;9.064;2022-07-29T12:12:21;3.50;;;2.63;;
26113;SDS011;13966;48.828;9.064;2022-07-29T12:14:47;5.68;;;2.25;;
26113;SDS011;13966;48.828;9.064;2022-07-29T12:17:26;3.28;;;2.03;;
26113;SDS011;13966;48.828;9.064;2022-07-29T12:19:53;3.65;;;2.17;;
26113;SDS011;13966;48.828;9.064;2022-07-29T12:22:26;5.20;;;2.38;;
26113;SDS011;13966;48.828;9.064;2022-07-29T12:24:53;2.65;;;2.17;;
26113;SDS011;13966;48.828;9.064;2022-07-29T12:27:19;7.22;;;2.60;;
26113;SDS011;13966;48.828;9.064;2022-07-29T12:29:54;5.03;;;2.53;;
26113;SDS011;13966;48.828;9.064;2022-07-29T12:32:21;4.60;;;2.58;;
26113;SDS011;13966;48.828;9.064;2022-07-29T12:34:48;12.13;;;3.38;;
26113;SDS011;13966;48.828;9.064;2022-07-29T12:37:14;5.10;;;2.67;;
26113;SDS011;13966;48.828;9.064;2022-07-29T12:39:40;5.75;;;2.50;;
26113;SDS011;13966;48.828;9.064;2022-07-29T12:42:13;5.47;;;2.67;;
26113;SDS011;13966;48.828;9.064;2022-07-29T12:44:43;4.80;;;3.17;;
26113;SDS011;13966;48.828;9.064;2022-07-29T12:47:09;5.40;;;3.00;;
26113;SDS011;13966;48.828;9.064;2022-07-29T12:49:35;6.00;;;3.33;;
26113;SDS011;13966;48.828;9.064;2022-07-29T12:52:01;5.50;;;3.40;;
26113;SDS011;13966;48.828;9.064;2022-07-29T12:54:47;7.25;;;3.50;;
26113;SDS011;13966;48.828;9.064;2022-07-29T12:57:13;4.43;;;3.30;;
26113;SDS011;13966;48.828;9.064;2022-07-29T12:59:39;6.85;;;3.08;;
26113;SDS011;13966;48.828;9.064;2022-07-29T13:02:05;8.13;;;3.35;;
26113;SDS011;13966;48.828;9.064;2022-07-29T13:04:32;4.70;;;3.00;;
26113;SDS011;13966;48.828;9.064;2022-07-29T13:07:04;6.63;;;3.58;;
26113;SDS011;13966;48.828;9.064;2022-07-29T13:09:38;8.10;;;3.33;;
26113;SDS011;13966;48.828;9.064;2022-07-29T13:12:06;7.07;;;3.22;;
26113;SDS011;13966;48.828;9.064;2022-07-29T13:14:37;5.22;;;3.05;;
26113;SDS011;13966;48.828;9.064;2022-07-29T13:17:11;4.47;;;2.85;;
26113;SDS011;13966;48.828;9.064;2022-07-29T13:19:41;5.95;;;2.50;;
26113;SDS011;13966;48.828;9.064;2022-07-29T13:22:10;6.87;;;3.17;;
26113;SDS011;13966;48.828;9.064;2022-07-29T13:24:56;5.13;;;3.03;;
26113;SDS011;13966;48.828;9.064;2022-07-29T13:27:24;6.53;;;2.65;;
26113;SDS011;13966;48.828;9.064;2022-07-29T13:29:50;5.25;;;2.92;;
26113;SDS011;13966;48.828;9.064;2022-07-29T13:32:17;5.70;;;2.88;;
26113;SDS011;13966;48.828;9.064;2022-07-29T13:34:43;4.53;;;2.78;;
26113;SDS011;13966;48.828;9.064;2022-07-29T13:37:09;4.03;;;2.50;;
26113;SDS011;13966;48.828;9.064;2022-07-29T13:39:35;4.68;;;2.50;;
26113;SDS011;13966;48.828;9.064;2022-07-29T13:42:02;4.57;;;2.45;;
26113;SDS011;13966;48.828;9.064;2022-07-29T13:44:28;6.13;;;2.42;;
26113;SDS011;13966;48.828;9.064;2022-07-29T13:46:54;2.97;;;2.35;;
26113;SDS011;13966;48.828;9.064;2022-07-29T13:49:21;4.43;;;2.15;;
26113;SDS011;13966;48.828;9.064;2022-07-29T13:51:48;4.88;;;2.65;;
26113;SDS011;13966;48.828;9.064;2022-07-29T13:54:14;4.38;;;2.25;;
26113;SDS011;13966;48.828;9.064;2022-07-29T13:56:40;5.95;;;2.60;;
26113;SDS011;13966;48.828;9.064;2022-07-29T13:59:06;4.45;;;2.30;;
26113;SDS011;13966;48.828;9.064;2022-07-29T14:01:33;2.95;;;2.20;;
26113;SDS011;13966;48.828;9.064;2022-07-29T14:03:59;4.22;;;2.20;;
26113;SDS011;13966;48.828;9.064;2022-07-29T14:06:25;4.70;;;2.55;;
26113;SDS011;13966;48.828;9.064;2022-07-29T14:08:51;5.78;;;2.55;;
26113;SDS011;13966;48.828;9.064;2022-07-29T14:11:17;4.45;;;2.35;;
26113;SDS011;13966;48.828;9.064;2022-07-29T14:13:43;4.30;;;2.67;;
26113;SDS011;13966;48.828;9.064;2022-07-29T14:16:09;2.67;;;2.47;;
26113;SDS011;13966;48.828;9.064;2022-07-29T14:18:35;5.10;;;2.35;;
26113;SDS011;13966;48.828;9.064;2022-07-29T14:21:01;4.25;;;3.05;;
26113;SDS011;13966;48.828;9.064;2022-07-29T14:23:27;5.55;;;2.90;;
26113;SDS011;13966;48.828;9.064;2022-07-29T14:25:53;4.15;;;2.53;;
26113;SDS011;13966;48.828;9.064;2022-07-29T14:28:19;5.55;;;2.72;;
26113;SDS011;13966;48.828;9.064;2022-07-29T14:30:45;8.13;;;2.60;;
26113;SDS011;13966;48.828;9.064;2022-07-29T14:33:11;4.22;;;2.60;;
26113;SDS011;13966;48.828;9.064;2022-07-29T14:35:37;6.60;;;2.85;;
26113;SDS011;13966;48.828;9.064;2022-07-29T14:38:04;6.25;;;2.75;;
26113;SDS011;13966;48.828;9.064;2022-07-29T14:40:30;3.35;;;2.55;;
26113;SDS011;13966;48.828;9.064;2022-07-29T14:42:56;4.72;;;2.63;;
26113;SDS011;13966;48.828;9.064;2022-07-29T14:45:25;3.65;;;2.30;;
26113;SDS011;13966;48.828;9.064;2022-07-29T14:47:52;7.25;;;2.55;;
26113;SDS011;13966;48.828;9.064;2022-07-29T14:50:18;2.58;;;2.30;;
26113;SDS011;13966;48.828;9.064;2022-07-29T14:52:44;4.18;;;2.33;;
26113;SDS011;13966;48.828;9.064;2022-07-29T14:55:11;3.47;;;2.60;;
26113;SDS011;13966;48.828;9.064;2022-07-29T14:57:37;11.75;;;2.90;;
26113;SDS011;13966;48.828;9.064;2022-07-29T15:00:03;6.90;;;2.60;;
26113;SDS011;13966;48.828;9.064;2022-07-29T15:02:31;3.45;;;2.53;;
26113;SDS011;13966;48.828;9.064;2022-07-29T15:04:57;3.45;;;2.60;;
26113;SDS011;13966;48.828;9.064;2022-07-29T15:07:23;5.97;;;2.42;;
26113;SDS011;13966;48.828;9.064;2022-07-29T15:09:52;4.80;;;2.40;;
26113;SDS011;13966;48.828;9.064;2022-07-29T15:12:18;4.82;;;2.58;;
26113;SDS011;13966;48.828;9.064;2022-07-29T15:14:44;3.72;;;2.15;;